Friday, October 31, 2014
20:04 UTC
  |  Log In   |  Register Free
Airport Search:

Akron-Canton Regional Airport
(KCAK)

FAA data valid effective September 18, 2014 - November 13, 2014 (unless otherwise noted).

 
 
 
 
 
 
 
 
 
 
 
 
 
 

Current Aviation Weather for Akron-Canton Regional Airport (KCAK)

The most recent METAR observation for KCAK was updated at: 1913
METAR Summary (Translated METAR)
KCAK
311851Z 20004KT 10SM SCT022 BKN036 OVC045 08/03 A2984 RMK AO2 SLP110 T00830028
KAKR
311854Z AUTO 21006KT 10SM SCT026 BKN031 OVC040 09/03 A2984 RMK AO2 SLP107 T00890028
(7.4 nm NW from KCAK)
KPOV
311859Z AUTO 16003KT 10SM BKN029 OVC035 08/01 A2985 RMK AO2 T00760008
(19.7 nm NE from KCAK)
TAF Summary (Translated TAF)
KCAK
311737Z 3118/0118 22008KT P6SM VCSH SCT018 OVC028 FM312000 23008KT 6SM -SHRA SCT015 OVC025 TEMPO 3120/3122 4SM -SHRA BR SCT008 OVC015 FM312200 02010KT 3SM -SHRA BR OVC008 FM010400 02012G20KT 2SM -SHRA BR OVC008 FM011200 36015G25KT 1 1/2SM -RASN BR OVC007 FM011500 35015G25KT 2SM -RASN BR OVC006
  Airport Weather Conditions for KCAK

 Current Weather at CAK
47° F
Overcast
South winds at 4.6 mph
CAK NOAA Radar

Pressure: 29.84 in
Humidity: 69%
Wind: South at 4.6 MPH (4 KT)
Dew Point: 37.0°F
Visibility: 10.00 mi


Airport Weather Forecast for KCAK

Translated METAR and TAF for KCAK
Translated METAR for KCAK (2000 UTC 31 October 2014)
found at http://aviationweather.gov/adds/metars/
 
METAR text: KCAK 311951Z 18005KT 8SM -RA BKN034 OVC046 08/03 A2984 RMK AO2 RAB42 SLP110 P0000 T00780033
Conditions at: KCAK (AKRON , OH, US) observed 1951 UTC 31 October 2014
Temperature: 7.8°C (46°F)
Dewpoint: 3.3°C (38°F) [RH = 73%]
Pressure (altimeter): 29.84 inches Hg (1010.6 mb)
[Sea-level pressure: 1011.0 mb]
Winds: from the S (180 degrees) at 6 MPH (5 knots; 2.6 m/s)
Visibility: 8 miles (13 km)
Ceiling: 3400 feet AGL
Clouds: broken clouds at 3400 feet AGL
overcast cloud deck at 4600 feet AGL
Weather: -RA  (light rain)
Translated TAF for KCAK
Forecast for: KCAK (AKRON , OH, US)
TAF Text: KCAK 311737Z 3118/0118 22008KT P6SM VCSH SCT018 OVC028
Forecast period: 1800 to 2000 UTC 31 October 2014
Forecast type: FROM: standard forecast or significant change
Winds: from the SW (220 degrees) at 9 MPH (8 knots; 4.2 m/s)
Visibility: 6 or more miles (10+ km)
Ceiling: 2800 feet AGL
Clouds: scattered clouds at 1800 feet AGL
overcast cloud deck at 2800 feet AGL
Weather: VCSH  (showers in vicinity)
TAF Text: FM312000 23008KT 6SM -SHRA SCT015 OVC025
Forecast period: 2000 to 2200 UTC 31 October 2014
Forecast type: FROM: standard forecast or significant change
Winds: from the SW (230 degrees) at 9 MPH (8 knots; 4.2 m/s)
Visibility: 6 miles (10 km)
Ceiling: 2500 feet AGL
Clouds: scattered clouds at 1500 feet AGL
overcast cloud deck at 2500 feet AGL
Weather: -SHRA  (light rain showers)
TAF Text: TEMPO 3120/3122 4SM -SHRA BR SCT008 OVC015
Forecast period: 2000 to 2200 UTC 31 October 2014
Forecast type: TEMPORARY: The following changes expected for less than half the time period
Visibility: 4 miles (6 km)
Ceiling: 1500 feet AGL
Clouds: scattered clouds at 800 feet AGL
overcast cloud deck at 1500 feet AGL
Weather: -SHRA BR  (light rain showers, mist)
TAF Text: FM312200 02010KT 3SM -SHRA BR OVC008
Forecast period: 2200 UTC 31 October 2014 to 0400 UTC 01 November 2014
Forecast type: FROM: standard forecast or significant change
Winds: from the NNE (20 degrees) at 12 MPH (10 knots; 5.2 m/s)
Visibility: 3 miles (5 km)
Ceiling: 800 feet AGL
Clouds: overcast cloud deck at 800 feet AGL
Weather: -SHRA BR  (light rain showers, mist)
TAF Text: FM010400 02012G20KT 2SM -SHRA BR OVC008
Forecast period: 0400 to 1200 UTC 01 November 2014
Forecast type: FROM: standard forecast or significant change
Winds: from the NNE (20 degrees) at 14 MPH (12 knots; 6.2 m/s)
gusting to 23 MPH (20 knots; 10.4 m/s)
Visibility: 2.00 miles (3.22 km)
Ceiling: 800 feet AGL
Clouds: overcast cloud deck at 800 feet AGL
Weather: -SHRA BR  (light rain showers, mist)
TAF Text: FM011200 36015G25KT 1 1/2SM -RASN BR OVC007
Forecast period: 1200 to 1500 UTC 01 November 2014
Forecast type: FROM: standard forecast or significant change
Winds: from the N (360 degrees) at 17 MPH (15 knots; 7.8 m/s)
gusting to 29 MPH (25 knots; 13.0 m/s)
Visibility: 1.50 miles (2.41 km)
Ceiling: 700 feet AGL
Clouds: overcast cloud deck at 700 feet AGL
Weather: -RA -SN BR  (light rain, light snow, mist)
TAF Text: FM011500 35015G25KT 2SM -RASN BR OVC006
Forecast period: 1500 to 1800 UTC 01 November 2014
Forecast type: FROM: standard forecast or significant change
Winds: from the N (350 degrees) at 17 MPH (15 knots; 7.8 m/s)
gusting to 29 MPH (25 knots; 13.0 m/s)
Visibility: 2.00 miles (3.22 km)
Ceiling: 600 feet AGL
Clouds: overcast cloud deck at 600 feet AGL
Weather: -RA -SN BR  (light rain, light snow, mist)

Find All Airport Services Find A Hotel Find A Rental Car Find A Golf Course Find A Restaurant $100 Hamburger



FBO's on the Field
FBO Company Facility Photos Services Transportation Aviation Fuel Prices: Prices include tax
Catering Weather Repair Courtesy Rental Type 100LL JetA JetA+ MOGAS 8087
 
Avflight Akron-Canton

This FBO has not yet been rated
FS:
Last Updated: Oct-02
Login to update fuel prices
SS:
Contact Avflight Akron-CantonMore FBO Information
 
McKinley Air, Inc.

Currently rated 4.4 by 4 people
FS:Phillips 66
Last Updated: Oct-16
Login to update fuel prices
SS:
Contact McKinley Air, Inc.More FBO Information
 
Add another FBO Facility Photos Catering Weather Repair Courtesy Rental Type 100LL JetA JetA+ MOGAS 8087
Services Transportation Aviation Fuel Prices: Prices include tax


model-print
model-print
model-print
model-print